Time;durP1;ratioP1;P1;durP2;ratioP2;P2;SDS_P1;SDS_P2;PMS_P1;PMS_P2;Temp;Humidity;BMP_temperature;BMP_pressure;BME280_temperature;BME280_humidity;BME280_pressure;Samples;Min_cycle;Max_cycle;Signal;HPM_P1;HPM_P2
2023/03/11 00:01:30;;;;;;;25.30;13.35;;;;;;;5.70;78.56;99883.50;10413387;28;20108;-80
2023/03/11 00:06:34;;;;;;;28.48;14.77;;;;;;;6.03;79.84;99938.41;10413292;28;20136;-79
2023/03/11 00:11:34;;;;;;;45.22;13.82;;;;;;;6.10;79.90;99979.03;10414062;28;20164;-80
2023/03/11 00:16:35;;;;;;;21.85;11.82;;;;;;;6.31;79.87;100019.19;10413211;28;20640;-79
2023/03/11 00:21:36;;;;;;;22.08;11.60;;;;;;;6.32;79.14;100004.16;10413250;28;20476;-80
2023/03/11 00:26:37;;;;;;;41.80;23.83;;;;;;;5.96;79.59;99932.09;10413121;28;20038;-79
2023/03/11 00:31:38;;;;;;;49.85;24.55;;;;;;;5.72;78.88;99888.63;10412721;28;20045;-80
2023/03/11 00:36:38;;;;;;;35.80;19.27;;;;;;;6.31;79.94;100008.63;10412436;28;20080;-80
2023/03/11 00:41:39;;;;;;;25.58;13.32;;;;;;;5.55;80.43;99921.84;10412730;28;20099;-80
2023/03/11 00:46:40;;;;;;;22.50;12.32;;;;;;;5.70;81.33;99991.53;10412490;28;20064;-80
2023/03/11 00:51:40;;;;;;;17.02;11.05;;;;;;;5.93;82.76;100036.84;10412845;28;20052;-80
2023/03/11 00:56:41;;;;;;;20.30;10.57;;;;;;;5.31;83.32;99937.34;10412212;28;20037;-80
2023/03/11 01:01:42;;;;;;;19.48;10.73;;;;;;;5.63;84.04;99981.75;10412464;28;20223;-80
2023/03/11 01:06:43;;;;;;;20.52;10.02;;;;;;;5.94;84.17;100017.41;10413734;28;20053;-79
2023/03/11 01:11:44;;;;;;;18.38;10.57;;;;;;;6.17;84.41;100043.41;10434893;28;20068;-80
2023/03/11 01:16:45;;;;;;;13.27;8.93;;;;;;;5.46;83.63;99939.34;10453909;28;20106;-79
2023/03/11 01:21:46;;;;;;;14.80;9.60;;;;;;;5.39;83.67;99951.47;10453356;28;20090;-80
2023/03/11 01:26:47;;;;;;;18.88;10.70;;;;;;;5.37;84.53;99950.75;10451981;28;20455;-80
2023/03/11 01:31:48;;;;;;;21.05;10.02;;;;;;;5.49;84.97;99997.03;10452968;28;20041;-80
2023/03/11 01:36:48;;;;;;;15.65;9.52;;;;;;;5.59;84.51;100040.97;10452921;28;20044;-80
2023/03/11 01:41:51;;;;;;;14.35;9.90;;;;;;;5.12;85.14;99983.84;10458357;28;20063;-80
2023/03/11 01:46:52;;;;;;;17.17;9.65;;;;;;;4.39;84.80;99878.25;10459863;28;20044;-80
2023/03/11 01:51:56;;;;;;;23.88;10.15;;;;;;;5.66;85.80;100071.88;10441245;28;20041;-80
2023/03/11 01:57:00;;;;;;;25.77;12.00;;;;;;;4.95;84.83;99945.88;10446557;28;20044;-80
2023/03/11 02:02:16;;;;;;;22.15;10.55;;;;;;;5.32;85.44;99997.78;10459533;28;20052;-80
2023/03/11 02:07:17;;;;;;;20.05;10.27;;;;;;;4.75;84.17;99923.19;10445330;28;20077;-80
2023/03/11 02:12:18;;;;;;;22.00;11.82;;;;;;;5.46;84.83;100065.00;10418318;28;20074;-80
2023/03/11 02:17:20;;;;;;;26.00;15.15;;;;;;;5.26;84.75;100006.25;10418645;28;20493;-80
2023/03/11 02:22:21;;;;;;;31.75;16.67;;;;;;;5.04;85.38;99963.47;10418380;28;20045;-80
2023/03/11 02:27:25;;;;;;;29.30;16.92;;;;;;;5.23;86.25;99988.09;10417668;28;20044;-81
2023/03/11 02:32:27;;;;;;;28.60;14.05;;;;;;;5.70;86.64;100046.06;10417239;28;20038;-80
2023/03/11 02:37:28;;;;;;;27.38;13.60;;;;;;;5.38;86.68;99960.31;10416058;28;20140;-80
2023/03/11 02:42:31;;;;;;;29.13;15.02;;;;;;;5.34;86.68;99929.97;10416496;28;20152;-80
2023/03/11 02:47:33;;;;;;;32.47;16.15;;;;;;;5.41;86.26;99923.16;10432829;28;20037;-80
2023/03/11 02:52:34;;;;;;;24.85;14.95;;;;;;;5.96;86.31;99990.09;10416318;28;20107;-80
2023/03/11 02:57:35;;;;;;;34.70;15.85;;;;;;;6.32;85.72;100015.56;10417763;28;20057;-79
2023/03/11 03:02:36;;;;;;;27.67;16.10;;;;;;;5.77;85.25;99901.34;10416115;28;20037;-80
2023/03/11 03:07:37;;;;;;;37.33;16.88;;;;;;;6.47;85.76;100004.50;10416682;28;20140;-80
2023/03/11 03:12:38;;;;;;;34.42;17.63;;;;;;;6.36;86.30;99982.59;10416014;28;20493;-80
2023/03/11 03:17:39;;;;;;;31.92;17.38;;;;;;;6.05;86.35;99987.41;10415704;28;20045;-79
2023/03/11 03:22:40;;;;;;;24.15;14.05;;;;;;;5.42;87.13;99951.16;10413701;28;20041;-79
2023/03/11 03:27:41;;;;;;;21.83;13.20;;;;;;;5.10;87.98;99955.97;10442287;28;20045;-80
2023/03/11 03:32:42;;;;;;;33.45;12.82;;;;;;;5.22;88.76;99996.97;10441399;28;20135;-79
2023/03/11 03:37:43;;;;;;;24.88;13.55;;;;;;;4.95;90.82;99955.59;10418015;28;20051;-79
2023/03/11 03:42:43;;;;;;;24.63;12.55;;;;;;;4.87;90.84;99960.72;10415899;28;20061;-80
2023/03/11 03:47:44;;;;;;;21.60;12.05;;;;;;;5.22;91.29;100004.88;10415250;28;20436;-80
2023/03/11 03:52:45;;;;;;;30.98;15.70;;;;;;;5.20;91.28;99991.00;10425932;28;20136;-80
2023/03/11 03:57:46;;;;;;;29.30;14.85;;;;;;;5.97;90.31;100071.66;10414373;28;20080;-79
2023/03/11 04:02:46;;;;;;;30.17;14.95;;;;;;;5.23;90.01;99907.31;10414148;28;20061;-80
2023/03/11 04:07:47;;;;;;;26.23;13.98;;;;;;;6.28;89.58;100043.22;10414530;28;20041;-80
2023/03/11 04:12:48;;;;;;;34.00;13.27;;;;;;;6.69;89.05;100088.50;10413832;28;20037;-79
2023/03/11 04:17:48;;;;;;;20.58;12.27;;;;;;;6.26;88.93;99999.50;10414894;28;20045;-79
2023/03/11 04:22:49;;;;;;;21.00;11.65;;;;;;;6.48;88.98;100030.72;10413019;28;20124;-79
2023/03/11 04:27:51;;;;;;;16.80;10.57;;;;;;;6.91;88.26;100094.31;10413420;28;20139;-79
2023/03/11 04:32:51;;;;;;;20.77;11.40;;;;;;;5.67;87.93;99904.03;10412454;28;20130;-79
2023/03/11 04:37:52;;;;;;;29.10;10.73;;;;;;;6.67;87.91;100071.16;10411931;28;20079;-80
2023/03/11 04:42:53;;;;;;;27.80;14.15;;;;;;;5.91;87.09;99928.03;10411493;28;20061;-79
2023/03/11 04:47:54;;;;;;;23.23;14.68;;;;;;;6.52;85.84;99944.16;10412150;28;20501;-79
2023/03/11 04:52:55;;;;;;;23.95;14.20;;;;;;;7.53;85.15;100044.97;10412847;28;20176;-79
2023/03/11 04:57:56;;;;;;;20.30;12.93;;;;;;;7.26;84.38;99927.03;10423314;28;20132;-80
2023/03/11 05:02:57;;;;;;;22.40;12.52;;;;;;;8.72;83.29;100087.34;10412391;28;20045;-80
2023/03/11 05:07:58;;;;;;;24.33;12.13;;;;;;;8.95;82.57;100098.16;10412487;28;20041;-79
2023/03/11 05:12:59;;;;;;;17.80;12.23;;;;;;;8.98;81.87;100052.78;10418405;28;20052;-79
2023/03/11 05:17:59;;;;;;;19.00;12.00;;;;;;;9.66;81.07;100101.94;10424380;28;20095;-76
2023/03/11 05:23:00;;;;;;;18.63;11.52;;;;;;;9.73;79.61;100051.72;10419949;28;20585;-76
2023/03/11 05:28:01;;;;;;;24.58;11.85;;;;;;;10.01;78.99;100026.41;10420127;28;20044;-77
2023/03/11 05:33:02;;;;;;;21.08;10.43;;;;;;;10.94;77.74;100109.78;10419691;28;20448;-78
2023/03/11 05:38:02;;;;;;;18.13;10.98;;;;;;;10.84;76.19;100038.28;10418699;28;20408;-78
2023/03/11 05:43:03;;;;;;;17.30;10.65;;;;;;;11.61;75.40;100104.63;10420004;28;20068;-76
2023/03/11 05:48:04;;;;;;;15.02;10.57;;;;;;;11.88;74.21;100111.19;10419164;28;20045;-78
2023/03/11 05:53:05;;;;;;;15.75;10.25;;;;;;;12.10;73.06;100082.84;10419086;28;20554;-78
2023/03/11 05:58:05;;;;;;;16.38;11.30;;;;;;;12.36;71.97;100078.88;10432494;28;20069;-78
2023/03/11 06:03:06;;;;;;;13.98;10.05;;;;;;;12.89;71.40;100105.28;10453124;28;20045;-78
2023/03/11 06:08:07;;;;;;;17.20;10.98;;;;;;;13.08;70.83;100091.34;10454414;28;20504;-77
2023/03/11 06:13:08;;;;;;;18.63;10.95;;;;;;;13.42;69.59;100093.31;10459420;28;20555;-76
2023/03/11 06:18:09;;;;;;;17.08;9.98;;;;;;;13.73;68.83;100091.28;10433410;28;20145;-78
2023/03/11 06:23:10;;;;;;;15.98;10.20;;;;;;;13.78;68.72;100028.28;10417754;28;20166;-77
2023/03/11 06:28:11;;;;;;;19.80;10.35;;;;;;;14.04;67.57;100026.78;10417889;28;20041;-77
2023/03/11 06:33:13;;;;;;;13.90;10.70;;;;;;;14.10;67.53;99989.41;10430503;28;20036;-77
2023/03/11 06:38:13;;;;;;;16.00;10.27;;;;;;;14.69;66.29;100024.56;10457361;28;20080;-77
2023/03/11 06:43:14;;;;;;;19.20;10.55;;;;;;;15.00;65.17;100048.91;10458078;28;20158;-77
2023/03/11 06:48:15;;;;;;;14.48;10.73;;;;;;;14.83;64.69;99959.38;10458723;28;20135;-78
2023/03/11 06:53:16;;;;;;;18.27;10.35;;;;;;;15.01;63.82;99930.16;10456616;28;20037;-77
2023/03/11 06:58:17;;;;;;;15.98;10.85;;;;;;;15.44;62.17;99934.22;10457185;28;20045;-78
2023/03/11 07:03:17;;;;;;;15.52;9.95;;;;;;;16.33;59.83;100013.88;10457419;28;20056;-77
2023/03/11 07:08:18;;;;;;;16.13;10.23;;;;;;;15.58;57.64;99847.47;10458227;28;20485;-77
2023/03/11 07:13:19;;;;;;;14.50;9.68;;;;;;;16.69;56.61;99990.16;10456464;28;20041;-77
2023/03/11 07:18:19;;;;;;;15.00;10.18;;;;;;;17.02;55.72;99989.94;10456492;28;20048;-77
2023/03/11 07:23:20;;;;;;;16.13;9.95;;;;;;;17.23;54.86;99978.00;10455505;28;20041;-78
2023/03/11 07:28:25;;;;;;;14.93;10.20;;;;;;;17.28;52.74;99929.84;10456819;28;20115;-77
2023/03/11 07:33:26;;;;;;;15.57;9.60;;;;;;;16.84;52.58;99841.31;10457345;28;20442;-75
2023/03/11 07:38:27;;;;;;;15.60;9.75;;;;;;;17.83;53.01;99951.38;10455587;28;20093;-76
2023/03/11 07:43:27;;;;;;;19.13;9.60;;;;;;;17.82;50.43;99938.16;10455947;28;20057;-76
2023/03/11 07:48:28;;;;;;;10.68;7.28;;;;;;;17.81;48.95;99942.72;10455403;28;20063;-75
2023/03/11 07:53:29;;;;;;;12.77;7.13;;;;;;;17.75;49.21;99920.22;10455326;28;20041;-75
2023/03/11 07:58:30;;;;;;;14.85;6.97;;;;;;;17.86;49.05;99926.75;10455866;28;20202;-75
2023/03/11 08:03:30;;;;;;;10.13;6.97;;;;;;;17.62;48.50;99825.53;10455646;28;20516;-75
2023/03/11 08:08:31;;;;;;;10.07;6.00;;;;;;;17.91;46.94;99861.56;10454528;28;20045;-77
2023/03/11 08:13:32;;;;;;;13.73;7.63;;;;;;;18.53;47.38;99897.06;10424873;28;20037;-76
2023/03/11 08:18:34;;;;;;;10.30;5.68;;;;;;;18.75;45.32;99912.66;10445756;28;20148;-75
2023/03/11 08:23:35;;;;;;;8.85;5.68;;;;;;;18.81;44.04;99903.66;10462336;28;20094;-75
2023/03/11 08:28:36;;;;;;;7.55;4.72;;;;;;;18.88;44.39;99899.81;10472648;28;20047;-76
2023/03/11 08:33:37;;;;;;;6.70;4.68;;;;;;;19.12;43.37;99897.94;10464352;28;20507;-76
2023/03/11 08:38:38;;;;;;;8.95;4.72;;;;;;;18.45;42.96;99792.50;10469436;28;20121;-76
2023/03/11 08:43:39;;;;;;;7.57;4.38;;;;;;;19.11;42.27;99869.38;10470193;28;20057;-77
2023/03/11 08:48:40;;;;;;;8.20;4.13;;;;;;;19.35;42.08;99883.66;10470153;28;20129;-76
2023/03/11 08:53:41;;;;;;;7.18;4.45;;;;;;;18.70;42.74;99757.31;10471035;28;20182;-76
2023/03/11 08:58:41;;;;;;;8.02;4.05;;;;;;;19.13;42.11;99829.56;10478135;28;20037;-75
2023/03/11 09:03:42;;;;;;;6.13;4.00;;;;;;;19.28;41.61;99841.72;10478016;28;20563;-76
2023/03/11 09:08:44;;;;;;;8.32;4.38;;;;;;;19.23;41.51;99807.44;10478968;28;20049;-76
2023/03/11 09:13:45;;;;;;;8.80;4.32;;;;;;;19.06;41.76;99761.59;10476117;28;20040;-76
2023/03/11 09:18:45;;;;;;;7.30;4.53;;;;;;;19.78;41.20;99823.09;10478538;28;20048;-77
2023/03/11 09:23:46;;;;;;;12.52;7.65;;;;;;;19.74;40.29;99815.72;10473957;28;20029;-76
2023/03/11 09:28:47;;;;;;;7.28;4.50;;;;;;;19.56;41.55;99809.47;10436536;28;20076;-76
2023/03/11 09:33:48;;;;;;;6.65;4.40;;;;;;;19.38;41.73;99801.53;10429703;28;20065;-76
2023/03/11 09:38:49;;;;;;;8.30;3.25;;;;;;;19.08;40.86;99772.94;10461097;28;20439;-76
2023/03/11 09:44:03;;;;;;;9.23;4.60;;;;;;;19.78;39.89;99776.47;10419184;28;20148;-75
2023/03/11 09:49:34;;;;;;;6.43;3.63;;;;;;;19.41;39.68;99708.66;10442607;28;20044;-76
2023/03/11 09:54:45;;;;;;;7.75;3.50;;;;;;;19.72;40.38;99704.69;10435259;28;20056;-75
2023/03/11 09:59:47;;;;;;;8.15;4.55;;;;;;;20.46;40.26;99759.25;10419887;28;20065;-75
2023/03/11 10:04:53;;;;;;;7.68;4.40;;;;;;;20.21;39.40;99659.88;10427968;28;20049;-76
2023/03/11 10:09:56;;;;;;;10.90;3.38;;;;;;;20.50;38.15;99728.00;10426180;28;20037;-76
2023/03/11 10:15:14;;;;;;;5.90;3.10;;;;;;;20.72;37.92;99738.84;10417161;28;20049;-75
2023/03/11 10:20:28;;;;;;;9.43;3.40;;;;;;;20.11;37.93;99707.47;10416387;28;20041;-75
2023/03/11 10:26:11;;;;;;;5.47;2.70;;;;;;;20.41;37.90;99705.22;10417114;28;20540;-77
2023/03/11 10:31:24;;;;;;;;;;;;;;;20.59;38.30;99717.63;10418044;28;20041;-76
2023/03/11 10:36:41;;;;;;;5.35;2.47;;;;;;;19.69;35.32;99645.88;10440601;28;19963;-75
2023/03/11 10:41:54;;;;;;;7.32;2.80;;;;;;;19.75;37.47;99644.91;10473775;28;20079;-77
2023/03/11 10:46:55;;;;;;;7.47;3.50;;;;;;;18.24;37.71;99436.31;10470797;28;20140;-78
2023/03/11 10:51:56;;;;;;;6.50;3.35;;;;;;;19.41;38.42;99617.91;10472237;28;20135;-77
2023/03/11 10:57:17;;;;;;;5.57;3.25;;;;;;;19.75;38.30;99661.06;10473951;28;20051;-78
2023/03/11 11:02:37;;;;;;;4.72;2.95;;;;;;;19.57;37.48;99608.22;10470605;28;20044;-76
2023/03/11 11:07:41;;;;;;;4.93;3.58;;;;;;;20.08;38.36;99654.03;10473021;28;20044;-77
2023/03/11 11:12:50;;;;;;;;;;;;;;;20.56;38.30;99682.25;10471894;28;20115;-76
2023/03/11 11:17:55;;;;;;;7.45;3.65;;;;;;;20.07;37.74;99663.97;10468612;28;20292;-76
2023/03/11 11:22:59;;;;;;;9.68;3.70;;;;;;;20.13;38.13;99681.88;10470348;28;20471;-77
2023/03/11 11:28:01;;;;;;;;;;;;;;;20.21;37.92;99677.94;10472475;28;20040;-75
2023/03/11 11:33:28;;;;;;;5.93;3.78;;;;;;;19.72;37.68;99677.72;10466867;28;19966;-74
2023/03/11 11:38:31;;;;;;;8.13;4.15;;;;;;;18.82;36.99;99571.66;10469906;28;20095;-74
2023/03/11 11:44:00;;;;;;;29.65;17.42;;;;;;;18.96;35.84;99616.03;10468706;28;20065;-74
2023/03/11 11:49:17;;;;;;;12.10;7.85;;;;;;;19.09;36.59;99669.59;10471751;28;20046;-75
2023/03/11 11:54:27;;;;;;;13.93;6.50;;;;;;;19.24;37.50;99671.75;10471876;28;20037;-74
2023/03/11 11:59:29;;;;;;;18.33;9.68;;;;;;;18.05;37.52;99531.63;10468350;28;20033;-75
2023/03/11 12:04:37;;;;;;;9.32;4.72;;;;;;;18.59;38.49;99627.13;10469487;28;20637;-75
2023/03/11 12:09:52;;;;;;;6.57;4.45;;;;;;;18.15;39.57;99594.47;10470690;28;20072;-75
2023/03/11 12:15:06;;;;;;;7.43;4.00;;;;;;;18.15;41.29;99658.97;10471622;28;20057;-76
2023/03/11 12:20:10;;;;;;;14.93;7.78;;;;;;;17.87;42.33;99662.38;10470054;28;20564;-75
2023/03/11 12:25:22;;;;;;;;;;;;;;;17.76;42.94;99655.09;10469984;28;20584;-76
2023/03/11 12:30:29;;;;;;;7.78;4.93;;;;;;;16.72;44.69;99585.56;10468059;28;19920;-75
2023/03/11 12:35:34;;;;;;;9.57;5.78;;;;;;;16.36;45.77;99592.63;10470812;28;20036;-75
2023/03/11 12:40:41;;;;;;;14.63;8.07;;;;;;;16.65;47.35;99659.91;10465354;28;20021;-75
2023/03/11 12:45:50;;;;;;;48.72;25.55;;;;;;;16.58;47.73;99661.88;10470312;28;20063;-76
2023/03/11 12:51:02;;;;;;;20.00;10.35;;;;;;;15.73;48.42;99540.13;10486733;28;20077;-76
2023/03/11 12:56:25;;;;;;;15.15;8.38;;;;;;;16.31;49.07;99661.34;10495754;28;20040;-75
2023/03/11 13:01:43;;;;;;;;;;;;;;;16.05;49.47;99662.41;10495265;28;20048;-76
2023/03/11 13:06:55;;;;;;;18.45;10.55;;;;;;;15.32;50.75;99591.50;10495471;28;19920;-76
2023/03/11 13:11:56;;;;;;;21.60;11.50;;;;;;;15.02;51.34;99629.56;10495281;28;20040;-75
2023/03/11 13:17:32;;;;;;;18.20;10.05;;;;;;;14.39;53.84;99594.66;10495159;28;20041;-76
2023/03/11 13:22:41;;;;;;;15.32;9.82;;;;;;;14.67;54.49;99660.38;10483268;28;20477;-76
2023/03/11 13:27:48;;;;;;;17.08;10.88;;;;;;;13.91;54.97;99574.44;10495713;28;20037;-75
2023/03/11 13:33:32;;;;;;;18.13;13.02;;;;;;;13.62;55.85;99562.38;10495006;28;20488;-76
2023/03/11 13:38:46;;;;;;;20.08;11.45;;;;;;;13.93;56.91;99667.69;10516687;28;20048;-75
2023/03/11 13:43:49;;;;;;;16.02;11.07;;;;;;;12.72;57.71;99516.56;10502223;28;20099;-75
2023/03/11 13:48:59;;;;;;;19.30;11.25;;;;;;;13.60;58.44;99673.84;10500290;28;20044;-76
2023/03/11 13:54:21;;;;;;;16.67;11.32;;;;;;;13.39;59.21;99684.69;10502459;28;20036;-76
2023/03/11 13:59:30;;;;;;;16.15;11.10;;;;;;;12.62;60.92;99608.53;10501781;28;20127;-76
2023/03/11 14:04:36;;;;;;;18.70;11.48;;;;;;;12.73;61.72;99677.25;10501255;28;20040;-74
2023/03/11 14:09:36;;;;;;;23.65;14.07;;;;;;;12.49;62.28;99697.22;10500682;28;20040;-76
2023/03/11 14:15:01;;;;;;;18.52;11.85;;;;;;;12.08;63.33;99658.03;10495430;28;20421;-79
2023/03/11 14:20:08;;;;;;;22.45;13.00;;;;;;;11.68;64.26;99635.63;10464562;28;20147;-77
2023/03/11 14:25:20;;;;;;;17.83;11.50;;;;;;;11.77;66.04;99672.53;10468164;28;20507;-80
2023/03/11 14:30:30;;;;;;;18.70;12.38;;;;;;;11.38;65.56;99628.59;10472481;28;20114;-77
2023/03/11 14:35:32;;;;;;;20.13;12.23;;;;;;;11.24;65.28;99616.19;10468593;28;20059;-77
2023/03/11 14:40:40;;;;;;;19.25;11.27;;;;;;;11.62;65.97;99704.53;10467257;28;20052;-77
2023/03/11 14:45:42;;;;;;;15.32;10.48;;;;;;;11.18;65.81;99662.16;10475194;28;20092;-78
2023/03/11 14:50:48;;;;;;;18.92;11.02;;;;;;;10.44;65.89;99558.72;10470894;28;20520;-78
2023/03/11 14:55:58;;;;;;;16.08;10.05;;;;;;;10.77;66.63;99643.28;10502907;28;20048;-78
2023/03/11 15:01:13;;;;;;;16.95;11.32;;;;;;;11.14;67.29;99735.31;10474011;28;20051;-78
2023/03/11 15:06:16;;;;;;;17.80;12.30;;;;;;;10.66;67.60;99695.88;10470409;28;20416;-77
2023/03/11 15:11:18;;;;;;;19.80;13.15;;;;;;;10.44;67.52;99672.91;10472493;28;20041;-77
2023/03/11 15:16:32;;;;;;;29.10;14.13;;;;;;;10.50;69.33;99704.06;10469721;28;20032;-78
2023/03/11 15:21:33;;;;;;;19.13;13.25;;;;;;;10.84;67.83;99771.75;10470459;28;20044;-78
2023/03/11 15:26:37;;;;;;;21.85;16.98;;;;;;;10.56;68.59;99747.63;10466886;28;20045;-79
2023/03/11 15:31:39;;;;;;;23.07;15.43;;;;;;;9.97;69.11;99672.19;10472384;28;20381;-79
2023/03/11 15:36:54;;;;;;;25.42;15.80;;;;;;;10.14;70.55;99706.53;10457120;28;20045;-78
2023/03/11 15:42:07;;;;;;;25.60;16.15;;;;;;;10.28;72.06;99732.31;10414577;28;20041;-77
2023/03/11 15:47:14;;;;;;;25.63;16.70;;;;;;;10.05;72.83;99733.16;10415013;28;20052;-78
2023/03/11 15:52:16;;;;;;;25.77;17.90;;;;;;;9.37;72.39;99651.84;10414931;28;20080;-78
2023/03/11 15:57:24;;;;;;;24.25;17.55;;;;;;;9.56;73.68;99700.91;10453120;28;20048;-79
2023/03/11 16:02:28;;;;;;;26.35;17.48;;;;;;;8.32;73.17;99508.47;10454380;28;20124;-78
2023/03/11 16:07:29;;;;;;;27.38;18.42;;;;;;;9.37;73.11;99679.16;10446397;28;20044;-79
2023/03/11 16:12:30;;;;;;;28.92;20.10;;;;;;;9.12;73.24;99654.66;10413475;28;20528;-78
2023/03/11 16:17:31;;;;;;;28.75;20.05;;;;;;;9.42;73.57;99705.13;10420765;28;20053;-77
2023/03/11 16:22:35;;;;;;;30.27;20.20;;;;;;;9.20;74.44;99693.50;10455538;28;20039;-76
2023/03/11 16:27:36;;;;;;;30.92;20.88;;;;;;;9.28;74.23;99708.56;10454985;28;20037;-76
2023/03/11 16:32:36;;;;;;;30.92;20.42;;;;;;;9.35;74.85;99714.78;10454690;28;20119;-75
2023/03/11 16:37:38;;;;;;;31.88;22.45;;;;;;;9.09;75.80;99676.19;10455240;28;20048;-74
2023/03/11 16:42:40;;;;;;;29.40;21.23;;;;;;;8.89;75.81;99641.38;10454057;28;20057;-77
2023/03/11 16:47:41;;;;;;;28.67;19.95;;;;;;;9.47;75.84;99725.81;10454338;28;20041;-73
2023/03/11 16:52:42;;;;;;;34.65;21.85;;;;;;;9.45;75.95;99725.97;10454674;28;20079;-73
2023/03/11 16:57:42;;;;;;;35.00;21.25;;;;;;;9.03;75.22;99671.56;10453413;28;20548;-74
2023/03/11 17:02:43;;;;;;;43.47;24.13;;;;;;;8.67;76.13;99645.63;10454265;28;20045;-73
2023/03/11 17:07:44;;;;;;;30.15;22.23;;;;;;;9.07;76.33;99672.06;10445208;28;20532;-75
2023/03/11 17:12:45;;;;;;;33.33;22.70;;;;;;;8.80;76.60;99612.47;10459893;28;20045;-77
2023/03/11 17:17:46;;;;;;;32.80;22.40;;;;;;;8.79;77.04;99595.72;10461211;28;20048;-77
2023/03/11 17:22:47;;;;;;;35.58;21.60;;;;;;;9.22;77.85;99648.28;10461286;28;20139;-76
2023/03/11 17:27:48;;;;;;;32.20;21.35;;;;;;;8.95;77.61;99588.69;10461253;28;20082;-76
2023/03/11 17:32:49;;;;;;;35.35;21.85;;;;;;;9.75;77.41;99723.44;10460386;28;20110;-75
2023/03/11 17:37:50;;;;;;;34.90;22.48;;;;;;;9.03;77.34;99620.41;10461262;28;20147;-73
2023/03/11 17:42:50;;;;;;;30.90;21.58;;;;;;;9.31;77.95;99666.59;10461580;28;20144;-74
2023/03/11 17:47:51;;;;;;;37.33;22.13;;;;;;;9.01;78.56;99636.50;10460710;28;20037;-74
2023/03/11 17:52:52;;;;;;;41.35;23.50;;;;;;;9.44;78.80;99719.03;10459580;28;20405;-73
2023/03/11 17:57:53;;;;;;;31.50;21.30;;;;;;;9.49;78.78;99729.13;10460800;28;20567;-74
2023/03/11 18:02:54;;;;;;;36.28;22.23;;;;;;;9.12;78.41;99669.69;10461097;28;20610;-76
2023/03/11 18:07:54;;;;;;;33.63;22.20;;;;;;;9.07;79.19;99694.09;10459303;28;20078;-75
2023/03/11 18:12:55;;;;;;;34.35;21.52;;;;;;;9.17;79.62;99730.13;10457940;28;20041;-75
2023/03/11 18:17:56;;;;;;;37.17;21.92;;;;;;;9.08;79.90;99722.22;10451734;28;20131;-76
2023/03/11 18:22:57;;;;;;;36.95;21.98;;;;;;;8.83;80.24;99686.28;10458553;28;20045;-75
2023/03/11 18:27:58;;;;;;;30.88;21.20;;;;;;;8.31;80.46;99608.16;10458620;28;20040;-77
2023/03/11 18:32:59;;;;;;;40.40;22.23;;;;;;;8.77;81.60;99708.16;10458715;28;20119;-79
2023/03/11 18:37:59;;;;;;;37.53;21.65;;;;;;;8.64;81.87;99698.91;10458051;28;20094;-77
2023/03/11 18:43:00;;;;;;;37.80;22.15;;;;;;;8.49;82.32;99713.03;10458219;28;20064;-77
2023/03/11 18:48:01;;;;;;;34.15;22.17;;;;;;;7.40;82.54;99545.94;10456804;28;20051;-79
2023/03/11 18:53:02;;;;;;;41.58;22.50;;;;;;;7.76;83.44;99632.78;10458108;28;20082;-78
2023/03/11 18:58:08;;;;;;;36.00;23.05;;;;;;;8.08;84.64;99708.63;10458118;28;20048;-78
2023/03/11 19:03:12;;;;;;;44.78;22.80;;;;;;;7.90;85.59;99686.84;10442366;28;20059;-81
2023/03/11 19:08:14;;;;;;;42.50;24.08;;;;;;;7.86;85.93;99704.00;10416695;28;20045;-81
2023/03/11 19:13:18;;;;;;;41.90;23.17;;;;;;;7.72;85.77;99685.19;10416247;28;20041;-81
2023/03/11 19:18:19;;;;;;;43.55;25.60;;;;;;;6.75;86.26;99530.91;10416538;28;20047;-80
2023/03/11 19:23:19;;;;;;;46.13;25.55;;;;;;;7.15;87.58;99605.88;10416050;28;20046;-80
2023/03/11 19:28:20;;;;;;;52.08;26.48;;;;;;;6.99;88.50;99600.56;10415213;28;20049;-80
2023/03/11 19:33:22;;;;;;;39.58;25.02;;;;;;;7.32;88.28;99652.44;10423296;28;20071;-74
2023/03/11 19:38:24;;;;;;;39.30;24.67;;;;;;;7.39;89.31;99662.34;10452862;28;20041;-80
2023/03/11 19:43:25;;;;;;;39.33;24.45;;;;;;;7.13;89.46;99613.16;10455072;28;20060;-79
2023/03/11 19:48:26;;;;;;;51.88;27.67;;;;;;;7.21;91.36;99652.78;10456220;28;20045;-77
2023/03/11 19:53:27;;;;;;;48.03;29.20;;;;;;;6.42;92.14;99566.97;10440044;28;20045;-78
2023/03/11 19:58:29;;;;;;;46.42;27.17;;;;;;;7.08;92.54;99673.53;10456183;28;20040;-77
2023/03/11 20:03:30;;;;;;;43.65;27.13;;;;;;;6.88;93.87;99651.03;10416194;28;20497;-78
2023/03/11 20:08:35;;;;;;;47.40;25.48;;;;;;;7.03;94.33;99665.28;10413865;28;20038;-78
2023/03/11 20:13:36;;;;;;;42.13;25.63;;;;;;;6.77;94.68;99634.53;10413899;28;20053;-78
2023/03/11 20:18:38;;;;;;;47.30;26.80;;;;;;;7.14;94.76;99687.91;10414182;28;20033;-78
2023/03/11 20:23:39;;;;;;;43.90;27.27;;;;;;;6.23;94.70;99533.78;10413464;28;20139;-77
2023/03/11 20:28:40;;;;;;;53.15;28.05;;;;;;;6.56;95.62;99576.91;10433929;28;20044;-77
2023/03/11 20:33:42;;;;;;;46.88;28.15;;;;;;;7.06;96.22;99649.13;10453852;28;20098;-78
2023/03/11 20:38:42;;;;;;;38.63;23.90;;;;;;;5.78;96.24;99426.00;10454174;28;20041;-77
2023/03/11 20:43:44;;;;;;;36.13;21.45;;;;;;;6.87;96.15;99607.97;10454237;28;20068;-78
2023/03/11 20:48:45;;;;;;;36.70;20.80;;;;;;;6.89;96.55;99594.63;10453684;28;20079;-77
2023/03/11 20:53:46;;;;;;;33.38;22.02;;;;;;;6.47;97.18;99522.47;10454519;28;20048;-78
2023/03/11 20:58:49;;;;;;;39.50;23.85;;;;;;;7.02;96.90;99610.81;10452554;28;20106;-79
2023/03/11 21:03:55;;;;;;;35.97;23.00;;;;;;;6.85;97.77;99563.28;10454815;28;20045;-78
2023/03/11 21:08:58;;;;;;;41.60;22.65;;;;;;;7.07;97.91;99621.72;10454156;28;20068;-79
2023/03/11 21:13:59;;;;;;;32.72;20.85;;;;;;;6.86;97.51;99595.78;10454425;28;20064;-78
2023/03/11 21:19:04;;;;;;;32.83;20.85;;;;;;;6.68;97.91;99550.22;10453021;28;20049;-77
2023/03/11 21:24:05;;;;;;;33.00;21.02;;;;;;;6.04;98.58;99458.41;10452581;28;20037;-79
2023/03/11 21:29:06;;;;;;;32.40;22.08;;;;;;;6.47;98.38;99532.19;10468420;28;20037;-78
2023/03/11 21:34:10;;;;;;;33.50;20.55;;;;;;;6.85;99.14;99607.34;10453874;28;20037;-78
2023/03/11 21:39:11;;;;;;;34.45;19.20;;;;;;;6.33;98.80;99505.44;10452777;28;20041;-77
2023/03/11 21:44:12;;;;;;;37.97;19.77;;;;;;;6.26;99.53;99522.91;10452700;28;20052;-79
2023/03/11 21:49:12;;;;;;;25.83;18.02;;;;;;;6.98;99.49;99635.91;10451994;28;20041;-77
2023/03/11 21:54:14;;;;;;;29.95;18.25;;;;;;;6.95;99.55;99623.84;10452304;28;20041;-78
2023/03/11 21:59:14;;;;;;;26.63;17.70;;;;;;;6.08;99.49;99472.91;10458210;28;20045;-77
2023/03/11 22:04:15;;;;;;;27.05;18.98;;;;;;;5.89;99.53;99459.94;10459911;28;20037;-78
2023/03/11 22:09:16;;;;;;;25.08;16.92;;;;;;;6.21;99.64;99512.00;10459902;28;20463;-79
2023/03/11 22:14:17;;;;;;;25.90;17.15;;;;;;;7.03;99.54;99625.66;10459218;28;20041;-78
2023/03/11 22:19:18;;;;;;;24.95;17.50;;;;;;;6.03;99.59;99438.28;10459039;28;20032;-78
2023/03/11 22:24:19;;;;;;;26.25;18.05;;;;;;;6.91;99.24;99582.91;10459379;28;20040;-77
2023/03/11 22:29:20;;;;;;;32.63;20.02;;;;;;;6.84;99.46;99574.81;10458537;28;20412;-78
2023/03/11 22:34:20;;;;;;;33.38;19.58;;;;;;;6.55;99.78;99517.22;10459651;28;20404;-78
2023/03/11 22:39:21;;;;;;;27.23;17.65;;;;;;;7.00;100.00;99578.44;10458718;28;20461;-77
2023/03/11 22:44:22;;;;;;;34.60;21.13;;;;;;;7.06;99.88;99589.22;10458342;28;20599;-79
2023/03/11 22:49:22;;;;;;;27.73;18.13;;;;;;;7.04;100.00;99585.91;10451664;28;20041;-81
2023/03/11 22:54:23;;;;;;;24.80;16.90;;;;;;;7.03;100.00;99584.25;10458006;28;20041;-78
2023/03/11 22:59:29;;;;;;;29.50;18.35;;;;;;;7.02;100.00;99585.22;10446994;28;20049;-78
2023/03/11 23:04:30;;;;;;;26.15;16.73;;;;;;;6.50;100.00;99495.75;10416928;28;20072;-78
2023/03/11 23:09:31;;;;;;;22.80;14.75;;;;;;;6.42;100.00;99489.63;10416944;28;20048;-78
2023/03/11 23:14:33;;;;;;;19.27;13.77;;;;;;;6.62;100.00;99525.28;10415281;28;20045;-78